sensor_id;sensor_type;location;lat;lon;timestamp;temperature;humidity
20862;DHT22;10591;52.532;13.348;2023-07-02T00:02:27;17.78;85.35
20862;DHT22;10591;52.532;13.348;2023-07-02T00:04:58;17.85;84.80
20862;DHT22;10591;52.532;13.348;2023-07-02T00:07:30;17.78;85.18
20862;DHT22;10591;52.532;13.348;2023-07-02T00:10:04;17.89;85.11
20862;DHT22;10591;52.532;13.348;2023-07-02T00:12:35;18.01;84.84
20862;DHT22;10591;52.532;13.348;2023-07-02T00:15:06;17.98;84.81
20862;DHT22;10591;52.532;13.348;2023-07-02T00:17:36;17.95;85.00
20862;DHT22;10591;52.532;13.348;2023-07-02T00:20:09;17.92;84.89
20862;DHT22;10591;52.532;13.348;2023-07-02T00:22:44;17.94;84.78
20862;DHT22;10591;52.532;13.348;2023-07-02T00:25:16;17.87;84.93
20862;DHT22;10591;52.532;13.348;2023-07-02T00:27:46;17.84;85.07
20862;DHT22;10591;52.532;13.348;2023-07-02T00:30:17;17.81;85.36
20862;DHT22;10591;52.532;13.348;2023-07-02T00:32:47;17.80;85.45
20862;DHT22;10591;52.532;13.348;2023-07-02T00:35:18;17.78;85.26
20862;DHT22;10591;52.532;13.348;2023-07-02T00:37:49;17.88;84.86
20862;DHT22;10591;52.532;13.348;2023-07-02T00:40:20;17.89;84.93
20862;DHT22;10591;52.532;13.348;2023-07-02T00:42:50;17.85;84.59
20862;DHT22;10591;52.532;13.348;2023-07-02T00:45:21;17.82;84.90
20862;DHT22;10591;52.532;13.348;2023-07-02T00:47:53;17.86;84.93
20862;DHT22;10591;52.532;13.348;2023-07-02T00:50:25;17.88;84.59
20862;DHT22;10591;52.532;13.348;2023-07-02T00:52:56;17.92;84.70
20862;DHT22;10591;52.532;13.348;2023-07-02T00:55:27;17.86;84.64
20862;DHT22;10591;52.532;13.348;2023-07-02T00:57:58;17.87;84.44
20862;DHT22;10591;52.532;13.348;2023-07-02T01:00:28;17.84;84.63
20862;DHT22;10591;52.532;13.348;2023-07-02T01:03:00;17.80;84.55
20862;DHT22;10591;52.532;13.348;2023-07-02T01:05:32;17.90;84.10
20862;DHT22;10591;52.532;13.348;2023-07-02T01:08:04;17.76;84.69
20862;DHT22;10591;52.532;13.348;2023-07-02T01:10:35;17.79;84.48
20862;DHT22;10591;52.532;13.348;2023-07-02T01:13:14;17.76;84.44
20862;DHT22;10591;52.532;13.348;2023-07-02T01:15:45;17.78;84.47
20862;DHT22;10591;52.532;13.348;2023-07-02T01:18:16;17.55;84.66
20862;DHT22;10591;52.532;13.348;2023-07-02T01:20:47;17.73;84.46
20862;DHT22;10591;52.532;13.348;2023-07-02T01:23:18;17.66;84.37
20862;DHT22;10591;52.532;13.348;2023-07-02T01:25:51;17.73;84.05
20862;DHT22;10591;52.532;13.348;2023-07-02T01:28:22;17.57;84.50
20862;DHT22;10591;52.532;13.348;2023-07-02T01:30:54;17.66;84.54
20862;DHT22;10591;52.532;13.348;2023-07-02T01:33:24;17.62;84.39
20862;DHT22;10591;52.532;13.348;2023-07-02T01:35:55;17.58;84.25
20862;DHT22;10591;52.532;13.348;2023-07-02T01:38:26;17.49;84.65
20862;DHT22;10591;52.532;13.348;2023-07-02T01:40:57;17.64;84.39
20862;DHT22;10591;52.532;13.348;2023-07-02T01:43:27;17.67;84.59
20862;DHT22;10591;52.532;13.348;2023-07-02T01:45:58;17.69;84.36
20862;DHT22;10591;52.532;13.348;2023-07-02T01:48:30;17.74;84.44
20862;DHT22;10591;52.532;13.348;2023-07-02T01:51:01;17.77;83.97
20862;DHT22;10591;52.532;13.348;2023-07-02T01:53:32;17.74;83.50
20862;DHT22;10591;52.532;13.348;2023-07-02T01:56:03;17.73;83.33
20862;DHT22;10591;52.532;13.348;2023-07-02T01:58:33;17.63;83.50
20862;DHT22;10591;52.532;13.348;2023-07-02T02:01:04;17.76;83.40
20862;DHT22;10591;52.532;13.348;2023-07-02T02:03:34;17.55;83.51
20862;DHT22;10591;52.532;13.348;2023-07-02T02:06:05;17.54;83.53
20862;DHT22;10591;52.532;13.348;2023-07-02T02:08:35;17.51;83.40
20862;DHT22;10591;52.532;13.348;2023-07-02T02:11:06;17.60;83.25
20862;DHT22;10591;52.532;13.348;2023-07-02T02:13:37;17.59;82.92
20862;DHT22;10591;52.532;13.348;2023-07-02T02:16:07;17.58;83.19
20862;DHT22;10591;52.532;13.348;2023-07-02T02:18:38;17.45;83.24
20862;DHT22;10591;52.532;13.348;2023-07-02T02:21:09;17.34;83.58
20862;DHT22;10591;52.532;13.348;2023-07-02T02:23:39;17.27;83.96
20862;DHT22;10591;52.532;13.348;2023-07-02T02:26:10;17.30;83.92
20862;DHT22;10591;52.532;13.348;2023-07-02T02:28:41;17.34;83.83
20862;DHT22;10591;52.532;13.348;2023-07-02T02:31:12;17.37;83.34
20862;DHT22;10591;52.532;13.348;2023-07-02T02:33:43;17.38;83.39
20862;DHT22;10591;52.532;13.348;2023-07-02T02:36:14;17.20;83.99
20862;DHT22;10591;52.532;13.348;2023-07-02T02:38:45;17.22;83.75
20862;DHT22;10591;52.532;13.348;2023-07-02T02:41:15;17.24;83.71
20862;DHT22;10591;52.532;13.348;2023-07-02T02:43:46;17.20;83.51
20862;DHT22;10591;52.532;13.348;2023-07-02T02:46:21;17.18;83.74
20862;DHT22;10591;52.532;13.348;2023-07-02T02:48:54;17.08;84.26
20862;DHT22;10591;52.532;13.348;2023-07-02T02:51:25;17.12;83.88
20862;DHT22;10591;52.532;13.348;2023-07-02T02:53:55;17.20;83.38
20862;DHT22;10591;52.532;13.348;2023-07-02T02:56:26;17.23;83.26
20862;DHT22;10591;52.532;13.348;2023-07-02T02:58:59;17.22;83.48
20862;DHT22;10591;52.532;13.348;2023-07-02T03:01:29;17.28;83.10
20862;DHT22;10591;52.532;13.348;2023-07-02T03:04:00;17.38;82.55
20862;DHT22;10591;52.532;13.348;2023-07-02T03:06:30;17.38;83.00
20862;DHT22;10591;52.532;13.348;2023-07-02T03:09:01;17.36;82.79
20862;DHT22;10591;52.532;13.348;2023-07-02T03:11:32;17.15;83.74
20862;DHT22;10591;52.532;13.348;2023-07-02T03:14:02;17.28;83.27
20862;DHT22;10591;52.532;13.348;2023-07-02T03:16:33;17.29;83.03
20862;DHT22;10591;52.532;13.348;2023-07-02T03:19:04;17.19;83.18
20862;DHT22;10591;52.532;13.348;2023-07-02T03:21:35;17.24;82.97
20862;DHT22;10591;52.532;13.348;2023-07-02T03:24:05;17.24;82.97
20862;DHT22;10591;52.532;13.348;2023-07-02T03:26:37;17.27;82.78
20862;DHT22;10591;52.532;13.348;2023-07-02T03:29:07;17.24;82.69
20862;DHT22;10591;52.532;13.348;2023-07-02T03:31:38;17.28;82.33
20862;DHT22;10591;52.532;13.348;2023-07-02T03:34:09;17.33;82.37
20862;DHT22;10591;52.532;13.348;2023-07-02T03:36:40;17.20;82.51
20862;DHT22;10591;52.532;13.348;2023-07-02T03:39:11;17.31;81.84
20862;DHT22;10591;52.532;13.348;2023-07-02T03:41:41;17.30;81.63
20862;DHT22;10591;52.532;13.348;2023-07-02T03:44:12;17.33;81.59
20862;DHT22;10591;52.532;13.348;2023-07-02T03:46:43;17.26;81.60
20862;DHT22;10591;52.532;13.348;2023-07-02T03:49:13;17.34;81.23
20862;DHT22;10591;52.532;13.348;2023-07-02T03:51:44;17.30;81.15
20862;DHT22;10591;52.532;13.348;2023-07-02T03:54:14;17.14;81.75
20862;DHT22;10591;52.532;13.348;2023-07-02T03:56:48;17.23;81.29
20862;DHT22;10591;52.532;13.348;2023-07-02T03:59:19;17.31;80.83
20862;DHT22;10591;52.532;13.348;2023-07-02T04:01:51;17.28;80.84
20862;DHT22;10591;52.532;13.348;2023-07-02T04:04:21;17.34;80.25
20862;DHT22;10591;52.532;13.348;2023-07-02T04:06:52;17.34;80.23
20862;DHT22;10591;52.532;13.348;2023-07-02T04:09:23;17.29;80.42
20862;DHT22;10591;52.532;13.348;2023-07-02T04:12:00;17.42;79.97
20862;DHT22;10591;52.532;13.348;2023-07-02T04:14:26;17.46;79.23
20862;DHT22;10591;52.532;13.348;2023-07-02T04:16:56;17.58;79.17
20862;DHT22;10591;52.532;13.348;2023-07-02T04:19:27;17.60;78.80
20862;DHT22;10591;52.532;13.348;2023-07-02T04:21:57;17.74;78.31
20862;DHT22;10591;52.532;13.348;2023-07-02T04:24:28;17.56;78.50
20862;DHT22;10591;52.532;13.348;2023-07-02T04:26:59;17.62;78.49
20862;DHT22;10591;52.532;13.348;2023-07-02T04:29:31;17.91;77.35
20862;DHT22;10591;52.532;13.348;2023-07-02T04:32:02;17.80;77.57
20862;DHT22;10591;52.532;13.348;2023-07-02T04:34:33;18.03;76.83
20862;DHT22;10591;52.532;13.348;2023-07-02T04:37:06;18.36;76.00
20862;DHT22;10591;52.532;13.348;2023-07-02T04:39:36;18.45;75.73
20862;DHT22;10591;52.532;13.348;2023-07-02T04:42:07;18.58;74.83
20862;DHT22;10591;52.532;13.348;2023-07-02T04:44:39;18.50;74.75
20862;DHT22;10591;52.532;13.348;2023-07-02T04:47:11;18.62;74.40
20862;DHT22;10591;52.532;13.348;2023-07-02T04:49:42;18.79;74.28
20862;DHT22;10591;52.532;13.348;2023-07-02T04:52:12;18.62;74.08
20862;DHT22;10591;52.532;13.348;2023-07-02T04:54:46;18.45;75.07
20862;DHT22;10591;52.532;13.348;2023-07-02T04:57:17;18.48;74.03
20862;DHT22;10591;52.532;13.348;2023-07-02T04:59:48;18.91;73.24
20862;DHT22;10591;52.532;13.348;2023-07-02T05:02:18;18.86;73.24
20862;DHT22;10591;52.532;13.348;2023-07-02T05:04:49;19.70;71.93
20862;DHT22;10591;52.532;13.348;2023-07-02T05:07:21;21.11;67.07
20862;DHT22;10591;52.532;13.348;2023-07-02T05:09:51;21.11;66.07
20862;DHT22;10591;52.532;13.348;2023-07-02T05:12:23;20.80;66.19
20862;DHT22;10591;52.532;13.348;2023-07-02T05:14:55;20.63;66.79
20862;DHT22;10591;52.532;13.348;2023-07-02T05:17:26;21.06;65.34
20862;DHT22;10591;52.532;13.348;2023-07-02T05:19:58;20.64;65.87
20862;DHT22;10591;52.532;13.348;2023-07-02T05:22:28;20.60;66.33
20862;DHT22;10591;52.532;13.348;2023-07-02T05:24:59;22.36;61.92
20862;DHT22;10591;52.532;13.348;2023-07-02T05:27:31;23.81;58.07
20862;DHT22;10591;52.532;13.348;2023-07-02T05:30:01;25.18;54.17
20862;DHT22;10591;52.532;13.348;2023-07-02T05:32:33;25.73;51.29
20862;DHT22;10591;52.532;13.348;2023-07-02T05:35:05;27.03;48.12
20862;DHT22;10591;52.532;13.348;2023-07-02T05:37:35;25.40;51.47
20862;DHT22;10591;52.532;13.348;2023-07-02T05:40:07;26.20;50.22
20862;DHT22;10591;52.532;13.348;2023-07-02T05:42:37;26.78;48.75
20862;DHT22;10591;52.532;13.348;2023-07-02T05:45:08;25.95;49.61
20862;DHT22;10591;52.532;13.348;2023-07-02T05:47:40;25.88;50.44
20862;DHT22;10591;52.532;13.348;2023-07-02T05:50:10;26.82;48.68
20862;DHT22;10591;52.532;13.348;2023-07-02T05:52:41;28.65;44.64
20862;DHT22;10591;52.532;13.348;2023-07-02T05:55:12;29.26;42.86
20862;DHT22;10591;52.532;13.348;2023-07-02T05:57:42;30.35;40.83
20862;DHT22;10591;52.532;13.348;2023-07-02T06:00:14;32.34;37.29
20862;DHT22;10591;52.532;13.348;2023-07-02T06:02:46;32.90;36.19
20862;DHT22;10591;52.532;13.348;2023-07-02T06:05:19;31.91;36.87
20862;DHT22;10591;52.532;13.348;2023-07-02T06:07:49;30.89;39.10
20862;DHT22;10591;52.532;13.348;2023-07-02T06:10:20;30.47;40.60
20862;DHT22;10591;52.532;13.348;2023-07-02T06:12:50;29.87;40.44
20862;DHT22;10591;52.532;13.348;2023-07-02T06:15:21;29.04;41.51
20862;DHT22;10591;52.532;13.348;2023-07-02T06:17:53;26.94;44.88
20862;DHT22;10591;52.532;13.348;2023-07-02T06:20:24;25.45;47.86
20862;DHT22;10591;52.532;13.348;2023-07-02T06:22:55;24.58;50.59
20862;DHT22;10591;52.532;13.348;2023-07-02T06:25:26;23.52;53.16
20862;DHT22;10591;52.532;13.348;2023-07-02T06:27:57;23.22;54.04
20862;DHT22;10591;52.532;13.348;2023-07-02T06:30:28;22.90;54.10
20862;DHT22;10591;52.532;13.348;2023-07-02T06:33:00;22.78;55.17
20862;DHT22;10591;52.532;13.348;2023-07-02T06:35:33;22.63;55.08
20862;DHT22;10591;52.532;13.348;2023-07-02T06:38:03;23.34;53.28
20862;DHT22;10591;52.532;13.348;2023-07-02T06:40:33;24.42;50.19
20862;DHT22;10591;52.532;13.348;2023-07-02T06:43:04;25.38;48.66
20862;DHT22;10591;52.532;13.348;2023-07-02T06:45:35;26.36;46.76
20862;DHT22;10591;52.532;13.348;2023-07-02T06:48:05;26.76;45.36
20862;DHT22;10591;52.532;13.348;2023-07-02T06:50:36;26.13;46.96
20862;DHT22;10591;52.532;13.348;2023-07-02T06:53:08;26.63;45.44
20862;DHT22;10591;52.532;13.348;2023-07-02T06:55:39;26.09;45.77
20862;DHT22;10591;52.532;13.348;2023-07-02T06:58:12;26.44;45.58
20862;DHT22;10591;52.532;13.348;2023-07-02T07:00:43;25.77;47.57
20862;DHT22;10591;52.532;13.348;2023-07-02T07:03:13;25.32;49.50
20862;DHT22;10591;52.532;13.348;2023-07-02T07:05:44;24.56;50.53
20862;DHT22;10591;52.532;13.348;2023-07-02T07:08:15;23.89;52.06
20862;DHT22;10591;52.532;13.348;2023-07-02T07:10:45;23.28;51.31
20862;DHT22;10591;52.532;13.348;2023-07-02T07:13:16;23.18;51.49
20862;DHT22;10591;52.532;13.348;2023-07-02T07:15:47;22.86;53.34
20862;DHT22;10591;52.532;13.348;2023-07-02T07:18:18;22.19;54.72
20862;DHT22;10591;52.532;13.348;2023-07-02T07:20:49;22.12;55.61
20862;DHT22;10591;52.532;13.348;2023-07-02T07:23:21;22.09;55.63
20862;DHT22;10591;52.532;13.348;2023-07-02T07:25:52;22.30;56.46
20862;DHT22;10591;52.532;13.348;2023-07-02T07:28:23;22.26;55.93
20862;DHT22;10591;52.532;13.348;2023-07-02T07:30:53;22.02;56.08
20862;DHT22;10591;52.532;13.348;2023-07-02T07:33:24;21.97;56.32
20862;DHT22;10591;52.532;13.348;2023-07-02T07:35:55;22.02;55.74
20862;DHT22;10591;52.532;13.348;2023-07-02T07:38:25;21.89;55.66
20862;DHT22;10591;52.532;13.348;2023-07-02T07:40:56;21.87;56.12
20862;DHT22;10591;52.532;13.348;2023-07-02T07:43:27;21.70;57.01
20862;DHT22;10591;52.532;13.348;2023-07-02T07:46:00;21.75;56.66
20862;DHT22;10591;52.532;13.348;2023-07-02T07:48:31;21.11;57.54
20862;DHT22;10591;52.532;13.348;2023-07-02T07:51:02;20.68;59.44
20862;DHT22;10591;52.532;13.348;2023-07-02T07:53:32;20.45;59.64
20862;DHT22;10591;52.532;13.348;2023-07-02T07:56:03;20.24;61.01
20862;DHT22;10591;52.532;13.348;2023-07-02T07:58:33;20.20;61.12
20862;DHT22;10591;52.532;13.348;2023-07-02T08:01:04;19.91;62.35
20862;DHT22;10591;52.532;13.348;2023-07-02T08:03:37;20.09;61.99
20862;DHT22;10591;52.532;13.348;2023-07-02T08:06:08;19.79;62.94
20862;DHT22;10591;52.532;13.348;2023-07-02T08:08:40;19.71;63.74
20862;DHT22;10591;52.532;13.348;2023-07-02T08:11:10;19.84;62.89
20862;DHT22;10591;52.532;13.348;2023-07-02T08:13:42;19.68;63.10
20862;DHT22;10591;52.532;13.348;2023-07-02T08:16:15;19.60;64.22
20862;DHT22;10591;52.532;13.348;2023-07-02T08:18:46;19.64;64.34
20862;DHT22;10591;52.532;13.348;2023-07-02T08:21:17;19.54;63.81
20862;DHT22;10591;52.532;13.348;2023-07-02T08:23:47;19.50;63.74
20862;DHT22;10591;52.532;13.348;2023-07-02T08:26:18;19.72;63.31
20862;DHT22;10591;52.532;13.348;2023-07-02T08:28:48;19.84;62.83
20862;DHT22;10591;52.532;13.348;2023-07-02T08:31:21;19.81;62.68
20862;DHT22;10591;52.532;13.348;2023-07-02T08:33:52;20.06;62.08
20862;DHT22;10591;52.532;13.348;2023-07-02T08:36:23;20.21;61.92
20862;DHT22;10591;52.532;13.348;2023-07-02T08:38:55;20.28;61.70
20862;DHT22;10591;52.532;13.348;2023-07-02T08:41:25;20.35;61.23
20862;DHT22;10591;52.532;13.348;2023-07-02T08:44:04;20.18;61.15
20862;DHT22;10591;52.532;13.348;2023-07-02T08:46:33;20.20;61.27
20862;DHT22;10591;52.532;13.348;2023-07-02T08:49:03;20.04;60.98
20862;DHT22;10591;52.532;13.348;2023-07-02T08:51:34;20.13;60.99
20862;DHT22;10591;52.532;13.348;2023-07-02T08:54:06;20.28;59.68
20862;DHT22;10591;52.532;13.348;2023-07-02T08:56:38;20.42;59.19
20862;DHT22;10591;52.532;13.348;2023-07-02T08:59:09;20.52;58.48
20862;DHT22;10591;52.532;13.348;2023-07-02T09:01:50;20.76;57.88
20862;DHT22;10591;52.532;13.348;2023-07-02T09:04:23;21.00;57.46
20862;DHT22;10591;52.532;13.348;2023-07-02T09:07:08;21.10;56.68
20862;DHT22;10591;52.532;13.348;2023-07-02T09:09:47;21.14;55.02
20862;DHT22;10591;52.532;13.348;2023-07-02T09:12:25;21.48;53.99
20862;DHT22;10591;52.532;13.348;2023-07-02T09:15:06;21.74;53.25
20862;DHT22;10591;52.532;13.348;2023-07-02T09:17:39;22.14;52.36
20862;DHT22;10591;52.532;13.348;2023-07-02T09:20:10;21.82;52.82
20862;DHT22;10591;52.532;13.348;2023-07-02T09:22:52;21.48;52.68
20862;DHT22;10591;52.532;13.348;2023-07-02T09:25:14;21.64;53.51
20862;DHT22;10591;52.532;13.348;2023-07-02T09:27:45;21.57;54.07
20862;DHT22;10591;52.532;13.348;2023-07-02T09:30:17;21.38;53.20
20862;DHT22;10591;52.532;13.348;2023-07-02T09:32:48;21.34;53.69
20862;DHT22;10591;52.532;13.348;2023-07-02T09:35:19;21.29;53.87
20862;DHT22;10591;52.532;13.348;2023-07-02T09:37:50;21.28;54.50
20862;DHT22;10591;52.532;13.348;2023-07-02T09:40:21;21.46;54.39
20862;DHT22;10591;52.532;13.348;2023-07-02T09:42:54;21.24;54.08
20862;DHT22;10591;52.532;13.348;2023-07-02T09:45:25;21.28;54.74
20862;DHT22;10591;52.532;13.348;2023-07-02T09:47:59;21.37;54.47
20862;DHT22;10591;52.532;13.348;2023-07-02T09:50:30;21.26;54.49
20862;DHT22;10591;52.532;13.348;2023-07-02T09:53:01;21.23;53.05
20862;DHT22;10591;52.532;13.348;2023-07-02T09:55:34;21.36;53.44
20862;DHT22;10591;52.532;13.348;2023-07-02T09:58:05;21.04;53.31
20862;DHT22;10591;52.532;13.348;2023-07-02T10:00:38;21.56;52.41
20862;DHT22;10591;52.532;13.348;2023-07-02T10:03:09;21.75;52.38
20862;DHT22;10591;52.532;13.348;2023-07-02T10:05:40;21.29;51.97
20862;DHT22;10591;52.532;13.348;2023-07-02T10:08:15;21.60;52.98
20862;DHT22;10591;52.532;13.348;2023-07-02T10:10:47;21.52;53.22
20862;DHT22;10591;52.532;13.348;2023-07-02T10:13:28;21.64;53.30
20862;DHT22;10591;52.532;13.348;2023-07-02T10:16:05;21.59;52.44
20862;DHT22;10591;52.532;13.348;2023-07-02T10:18:36;21.71;52.15
20862;DHT22;10591;52.532;13.348;2023-07-02T10:21:17;21.70;51.67
20862;DHT22;10591;52.532;13.348;2023-07-02T10:23:48;21.78;52.38
20862;DHT22;10591;52.532;13.348;2023-07-02T10:26:19;21.76;52.78
20862;DHT22;10591;52.532;13.348;2023-07-02T10:28:58;21.74;53.16
20862;DHT22;10591;52.532;13.348;2023-07-02T10:31:29;21.80;52.73
20862;DHT22;10591;52.532;13.348;2023-07-02T10:34:00;21.86;52.26
20862;DHT22;10591;52.532;13.348;2023-07-02T10:36:30;21.97;52.97
20862;DHT22;10591;52.532;13.348;2023-07-02T10:39:02;22.23;52.21
20862;DHT22;10591;52.532;13.348;2023-07-02T10:41:34;22.40;51.64
20862;DHT22;10591;52.532;13.348;2023-07-02T10:44:11;22.09;52.23
20862;DHT22;10591;52.532;13.348;2023-07-02T10:46:45;22.04;51.62
20862;DHT22;10591;52.532;13.348;2023-07-02T10:49:17;22.40;51.58
20862;DHT22;10591;52.532;13.348;2023-07-02T10:52:02;21.99;52.28
20862;DHT22;10591;52.532;13.348;2023-07-02T10:54:46;22.20;50.63
20862;DHT22;10591;52.532;13.348;2023-07-02T10:57:14;22.25;51.75
20862;DHT22;10591;52.532;13.348;2023-07-02T10:59:49;21.88;51.44
20862;DHT22;10591;52.532;13.348;2023-07-02T11:02:20;21.47;52.15
20862;DHT22;10591;52.532;13.348;2023-07-02T11:04:51;21.20;53.37
20862;DHT22;10591;52.532;13.348;2023-07-02T11:07:25;20.62;53.44
20862;DHT22;10591;52.532;13.348;2023-07-02T11:09:56;20.60;53.68
20862;DHT22;10591;52.532;13.348;2023-07-02T11:12:30;20.63;54.03
20862;DHT22;10591;52.532;13.348;2023-07-02T11:15:10;20.56;54.18
20862;DHT22;10591;52.532;13.348;2023-07-02T11:17:41;20.70;54.63
20862;DHT22;10591;52.532;13.348;2023-07-02T11:20:14;20.57;55.04
20862;DHT22;10591;52.532;13.348;2023-07-02T11:22:47;20.70;56.38
20862;DHT22;10591;52.532;13.348;2023-07-02T11:25:21;20.54;53.49
20862;DHT22;10591;52.532;13.348;2023-07-02T11:28:03;20.84;53.34
20862;DHT22;10591;52.532;13.348;2023-07-02T11:30:44;20.92;52.92
20862;DHT22;10591;52.532;13.348;2023-07-02T11:33:09;20.82;49.85
20862;DHT22;10591;52.532;13.348;2023-07-02T11:35:39;20.93;51.70
20862;DHT22;10591;52.532;13.348;2023-07-02T11:38:10;21.06;50.55
20862;DHT22;10591;52.532;13.348;2023-07-02T11:40:43;21.20;52.24
20862;DHT22;10591;52.532;13.348;2023-07-02T11:43:16;21.26;50.16
20862;DHT22;10591;52.532;13.348;2023-07-02T11:45:47;21.43;52.83
20862;DHT22;10591;52.532;13.348;2023-07-02T11:48:19;21.45;51.51
20862;DHT22;10591;52.532;13.348;2023-07-02T11:50:49;21.46;49.49
20862;DHT22;10591;52.532;13.348;2023-07-02T11:53:20;21.75;49.01
20862;DHT22;10591;52.532;13.348;2023-07-02T11:55:51;21.91;47.23
20862;DHT22;10591;52.532;13.348;2023-07-02T11:58:21;22.06;48.15
20862;DHT22;10591;52.532;13.348;2023-07-02T12:00:52;22.19;47.20
20862;DHT22;10591;52.532;13.348;2023-07-02T12:03:23;22.17;45.90
20862;DHT22;10591;52.532;13.348;2023-07-02T12:05:53;22.14;46.02
20862;DHT22;10591;52.532;13.348;2023-07-02T12:08:24;21.94;46.68
20862;DHT22;10591;52.532;13.348;2023-07-02T12:10:55;21.71;49.23
20862;DHT22;10591;52.532;13.348;2023-07-02T12:13:27;21.88;47.77
20862;DHT22;10591;52.532;13.348;2023-07-02T12:15:59;21.82;48.12
20862;DHT22;10591;52.532;13.348;2023-07-02T12:18:29;21.89;48.19
20862;DHT22;10591;52.532;13.348;2023-07-02T12:21:00;22.16;46.48
20862;DHT22;10591;52.532;13.348;2023-07-02T12:23:31;22.33;44.18
20862;DHT22;10591;52.532;13.348;2023-07-02T12:26:02;22.34;44.08
20862;DHT22;10591;52.532;13.348;2023-07-02T12:28:32;22.59;46.92
20862;DHT22;10591;52.532;13.348;2023-07-02T12:31:03;22.60;44.57
20862;DHT22;10591;52.532;13.348;2023-07-02T12:33:34;22.65;45.07
20862;DHT22;10591;52.532;13.348;2023-07-02T12:36:06;22.61;44.24
20862;DHT22;10591;52.532;13.348;2023-07-02T12:38:37;22.31;42.56
20862;DHT22;10591;52.532;13.348;2023-07-02T12:41:08;22.36;44.21
20862;DHT22;10591;52.532;13.348;2023-07-02T12:43:39;22.26;44.49
20862;DHT22;10591;52.532;13.348;2023-07-02T12:46:11;22.13;43.13
20862;DHT22;10591;52.532;13.348;2023-07-02T12:48:41;22.20;42.48
20862;DHT22;10591;52.532;13.348;2023-07-02T12:51:14;22.71;43.46
20862;DHT22;10591;52.532;13.348;2023-07-02T12:53:46;23.11;43.21
20862;DHT22;10591;52.532;13.348;2023-07-02T12:56:17;22.66;43.42
20862;DHT22;10591;52.532;13.348;2023-07-02T12:58:47;22.58;43.98
20862;DHT22;10591;52.532;13.348;2023-07-02T13:01:20;22.30;46.69
20862;DHT22;10591;52.532;13.348;2023-07-02T13:03:50;22.20;44.52
20862;DHT22;10591;52.532;13.348;2023-07-02T13:06:21;22.41;43.69
20862;DHT22;10591;52.532;13.348;2023-07-02T13:08:52;22.91;43.88
20862;DHT22;10591;52.532;13.348;2023-07-02T13:11:24;22.50;43.04
20862;DHT22;10591;52.532;13.348;2023-07-02T13:13:55;22.65;43.26
20862;DHT22;10591;52.532;13.348;2023-07-02T13:16:29;22.52;42.35
20862;DHT22;10591;52.532;13.348;2023-07-02T13:19:00;22.32;44.80
20862;DHT22;10591;52.532;13.348;2023-07-02T13:21:31;22.32;44.31
20862;DHT22;10591;52.532;13.348;2023-07-02T13:24:02;22.10;42.90
20862;DHT22;10591;52.532;13.348;2023-07-02T13:26:34;22.11;43.79
20862;DHT22;10591;52.532;13.348;2023-07-02T13:29:05;22.12;45.73
20862;DHT22;10591;52.532;13.348;2023-07-02T13:31:37;22.09;43.10
20862;DHT22;10591;52.532;13.348;2023-07-02T13:34:08;22.21;45.35
20862;DHT22;10591;52.532;13.348;2023-07-02T13:36:39;22.26;46.95
20862;DHT22;10591;52.532;13.348;2023-07-02T13:39:10;22.25;45.58
20862;DHT22;10591;52.532;13.348;2023-07-02T13:41:42;22.39;46.38
20862;DHT22;10591;52.532;13.348;2023-07-02T13:44:14;22.52;44.17
20862;DHT22;10591;52.532;13.348;2023-07-02T13:46:46;22.57;43.25
20862;DHT22;10591;52.532;13.348;2023-07-02T13:49:19;22.89;43.22
20862;DHT22;10591;52.532;13.348;2023-07-02T13:51:50;22.83;44.07
20862;DHT22;10591;52.532;13.348;2023-07-02T13:54:21;22.82;42.75
20862;DHT22;10591;52.532;13.348;2023-07-02T13:56:52;22.61;43.26
20862;DHT22;10591;52.532;13.348;2023-07-02T13:59:23;22.82;41.68
20862;DHT22;10591;52.532;13.348;2023-07-02T14:01:57;23.13;41.14
20862;DHT22;10591;52.532;13.348;2023-07-02T14:04:30;22.80;43.08
20862;DHT22;10591;52.532;13.348;2023-07-02T14:07:03;22.52;41.68
20862;DHT22;10591;52.532;13.348;2023-07-02T14:09:34;22.52;41.81
20862;DHT22;10591;52.532;13.348;2023-07-02T14:12:06;22.52;43.84
20862;DHT22;10591;52.532;13.348;2023-07-02T14:14:37;22.46;42.60
20862;DHT22;10591;52.532;13.348;2023-07-02T14:17:08;22.21;44.00
20862;DHT22;10591;52.532;13.348;2023-07-02T14:19:40;22.02;41.93
20862;DHT22;10591;52.532;13.348;2023-07-02T14:22:11;22.07;43.03
20862;DHT22;10591;52.532;13.348;2023-07-02T14:24:42;22.36;43.69
20862;DHT22;10591;52.532;13.348;2023-07-02T14:27:12;22.34;43.95
20862;DHT22;10591;52.532;13.348;2023-07-02T14:29:44;22.34;42.69
20862;DHT22;10591;52.532;13.348;2023-07-02T14:32:16;22.32;43.61
20862;DHT22;10591;52.532;13.348;2023-07-02T14:34:47;22.41;42.04
20862;DHT22;10591;52.532;13.348;2023-07-02T14:37:17;22.47;42.04
20862;DHT22;10591;52.532;13.348;2023-07-02T14:39:48;22.53;43.04
20862;DHT22;10591;52.532;13.348;2023-07-02T14:42:20;22.48;43.04
20862;DHT22;10591;52.532;13.348;2023-07-02T14:44:51;22.61;42.95
20862;DHT22;10591;52.532;13.348;2023-07-02T14:47:21;22.58;42.75
20862;DHT22;10591;52.532;13.348;2023-07-02T14:49:52;22.55;43.54
20862;DHT22;10591;52.532;13.348;2023-07-02T14:52:23;22.62;43.19
20862;DHT22;10591;52.532;13.348;2023-07-02T14:54:53;22.22;41.15
20862;DHT22;10591;52.532;13.348;2023-07-02T14:57:26;22.17;44.00
20862;DHT22;10591;52.532;13.348;2023-07-02T14:59:57;22.29;41.89
20862;DHT22;10591;52.532;13.348;2023-07-02T15:02:29;22.40;42.50
20862;DHT22;10591;52.532;13.348;2023-07-02T15:05:01;22.37;42.46
20862;DHT22;10591;52.532;13.348;2023-07-02T15:07:33;22.32;41.33
20862;DHT22;10591;52.532;13.348;2023-07-02T15:10:03;22.16;44.22
20862;DHT22;10591;52.532;13.348;2023-07-02T15:12:36;22.02;43.18
20862;DHT22;10591;52.532;13.348;2023-07-02T15:15:14;21.94;42.62
20862;DHT22;10591;52.532;13.348;2023-07-02T15:17:45;22.16;42.08
20862;DHT22;10591;52.532;13.348;2023-07-02T15:20:16;22.08;42.86
20862;DHT22;10591;52.532;13.348;2023-07-02T15:22:47;22.05;42.86
20862;DHT22;10591;52.532;13.348;2023-07-02T15:25:20;22.17;43.40
20862;DHT22;10591;52.532;13.348;2023-07-02T15:27:52;22.22;43.77
20862;DHT22;10591;52.532;13.348;2023-07-02T15:30:24;22.38;42.10
20862;DHT22;10591;52.532;13.348;2023-07-02T15:32:55;22.43;44.62
20862;DHT22;10591;52.532;13.348;2023-07-02T15:35:26;22.35;43.02
20862;DHT22;10591;52.532;13.348;2023-07-02T15:37:57;22.46;42.74
20862;DHT22;10591;52.532;13.348;2023-07-02T15:40:29;22.32;42.02
20862;DHT22;10591;52.532;13.348;2023-07-02T15:43:00;22.12;42.93